Time;durP1;ratioP1;P1;durP2;ratioP2;P2;SDS_P1;SDS_P2;PMS_P1;PMS_P2;Temp;Humidity;BMP_temperature;BMP_pressure;BME280_temperature;BME280_humidity;BME280_pressure;Samples;Min_cycle;Max_cycle;Signal;HPM_P1;HPM_P2
2021/07/02 00:01:55;;;;;;;41.37;28.13;;;14.60;99.90;;;;;;5054210;28;20191;-68
2021/07/02 00:04:20;;;;;;;33.50;27.07;;;14.50;99.90;;;;;;5054142;28;20190;-68
2021/07/02 00:06:46;;;;;;;35.67;26.50;;;14.50;99.90;;;;;;5054241;28;20187;-68
2021/07/02 00:09:12;;;;;;;31.50;25.97;;;14.60;99.90;;;;;;5054077;28;20639;-68
2021/07/02 00:11:37;;;;;;;40.00;27.10;;;14.50;99.90;;;;;;5053629;28;20421;-68
2021/07/02 00:14:04;;;;;;;38.37;26.97;;;14.50;99.90;;;;;;5053874;28;20189;-68
2021/07/02 00:16:33;;;;;;;36.10;27.23;;;14.50;99.90;;;;;;5053910;28;20160;-68
2021/07/02 00:18:58;;;;;;;32.07;25.50;;;14.50;99.90;;;;;;5053967;28;20421;-68
2021/07/02 00:21:24;;;;;;;39.23;26.10;;;14.50;99.90;;;;;;5053581;28;20534;-68
2021/07/02 00:23:49;;;;;;;35.80;26.90;;;14.50;99.90;;;;;;5054097;28;20157;-68
2021/07/02 00:26:15;;;;;;;39.77;27.97;;;14.50;99.90;;;;;;5054108;28;20313;-68
2021/07/02 00:28:40;;;;;;;37.00;25.20;;;14.50;99.90;;;;;;5052997;28;20178;-68
2021/07/02 00:31:06;;;;;;;36.27;28.83;;;14.50;99.90;;;;;;5039330;28;20210;-68
2021/07/02 00:33:32;;;;;;;32.00;24.93;;;14.50;99.90;;;;;;5033721;28;20669;-68
2021/07/02 00:35:57;;;;;;;34.43;24.67;;;14.50;99.90;;;;;;5033826;28;20159;-68
2021/07/02 00:38:23;;;;;;;37.63;27.20;;;14.50;99.90;;;;;;5034109;28;20173;-68
2021/07/02 00:40:48;;;;;;;43.90;27.60;;;14.50;99.90;;;;;;5034102;28;20243;-68
2021/07/02 00:43:14;;;;;;;34.83;26.10;;;14.40;99.90;;;;;;5047502;28;20175;-68
2021/07/02 00:45:39;;;;;;;35.27;25.67;;;14.40;99.90;;;;;;5040577;28;20211;-68
2021/07/02 00:48:05;;;;;;;40.80;29.30;;;14.40;99.90;;;;;;5033453;28;20164;-68
2021/07/02 00:50:31;;;;;;;39.10;28.67;;;14.40;99.90;;;;;;5033413;28;20174;-68
2021/07/02 00:52:57;;;;;;;40.80;28.60;;;14.40;99.90;;;;;;5033486;28;20169;-68
2021/07/02 00:55:23;;;;;;;41.00;29.50;;;14.40;99.90;;;;;;5034072;28;20400;-68
2021/07/02 00:57:48;;;;;;;44.30;28.53;;;14.40;99.90;;;;;;5033240;28;20182;-68
2021/07/02 01:00:14;;;;;;;42.40;28.00;;;14.40;99.90;;;;;;5041640;28;20205;-68
2021/07/02 01:02:40;;;;;;;39.50;27.90;;;14.40;99.90;;;;;;5045385;28;20178;-68
2021/07/02 01:05:07;;;;;;;42.57;29.97;;;14.40;99.90;;;;;;5041701;28;20446;-68
2021/07/02 01:07:33;;;;;;;37.60;27.57;;;14.40;99.90;;;;;;5039057;28;20418;-68
2021/07/02 01:09:59;;;;;;;37.50;29.23;;;14.40;99.90;;;;;;5042409;28;20417;-68
2021/07/02 01:12:26;;;;;;;41.47;30.00;;;14.40;99.90;;;;;;5033102;28;20400;-68
2021/07/02 01:14:52;;;;;;;41.07;28.50;;;14.40;99.90;;;;;;5032870;28;20426;-68
2021/07/02 01:17:18;;;;;;;40.17;28.83;;;14.40;99.90;;;;;;5033075;28;20477;-68
2021/07/02 01:19:49;;;;;;;42.40;28.70;;;14.40;99.90;;;;;;5045765;28;20232;-68
2021/07/02 01:22:19;;;;;;;41.27;29.27;;;14.40;99.90;;;;;;5052775;28;20183;-68
2021/07/02 01:24:44;;;;;;;43.00;29.40;;;14.40;99.90;;;;;;5053151;28;20417;-68
2021/07/02 01:27:12;;;;;;;39.70;29.07;;;14.40;99.90;;;;;;5052754;28;20857;-68
2021/07/02 01:29:37;;;;;;;43.67;31.10;;;14.40;99.90;;;;;;5052487;28;20230;-68
2021/07/02 01:32:03;;;;;;;39.27;27.97;;;14.40;99.90;;;;;;5052554;28;20837;-68
2021/07/02 01:34:29;;;;;;;39.80;27.93;;;14.30;99.90;;;;;;5052489;28;20272;-68
2021/07/02 01:36:54;;;;;;;44.13;28.07;;;14.40;99.90;;;;;;5051474;28;20441;-68
2021/07/02 01:39:20;;;;;;;44.13;28.97;;;14.30;99.90;;;;;;5033286;28;20187;-68
2021/07/02 01:41:45;;;;;;;39.10;29.00;;;14.30;99.90;;;;;;5032459;28;20273;-68
2021/07/02 01:44:11;;;;;;;34.73;26.70;;;14.30;99.90;;;;;;5032528;28;20166;-68
2021/07/02 01:46:38;;;;;;;44.57;28.50;;;14.30;99.90;;;;;;5032493;28;20616;-68
2021/07/02 01:49:04;;;;;;;38.00;26.00;;;14.20;99.90;;;;;;5032730;28;20210;-68
2021/07/02 01:51:29;;;;;;;39.63;27.67;;;14.20;99.90;;;;;;5032346;28;20426;-68
2021/07/02 01:53:55;;;;;;;44.77;28.47;;;14.20;99.90;;;;;;5046832;28;20320;-68
2021/07/02 01:56:21;;;;;;;38.87;26.17;;;14.20;99.90;;;;;;5052006;28;20165;-68
2021/07/02 01:58:47;;;;;;;38.77;27.00;;;14.20;99.90;;;;;;5051964;28;20205;-68
2021/07/02 02:01:12;;;;;;;40.57;27.80;;;14.20;99.90;;;;;;5045753;28;20464;-68
2021/07/02 02:03:38;;;;;;;40.40;28.70;;;14.20;99.90;;;;;;5044142;28;20178;-68
2021/07/02 02:06:03;;;;;;;39.60;27.13;;;14.20;99.90;;;;;;5032231;28;20254;-68
2021/07/02 02:08:29;;;;;;;39.90;27.97;;;14.20;99.90;;;;;;5032296;28;20155;-68
2021/07/02 02:10:54;;;;;;;39.70;27.60;;;14.20;99.90;;;;;;5033236;28;20717;-72
2021/07/02 02:13:20;;;;;;;37.60;26.97;;;14.20;99.90;;;;;;5032547;28;20183;-72
2021/07/02 02:15:45;;;;;;;36.13;26.00;;;14.10;99.90;;;;;;5032198;28;20226;-72
2021/07/02 02:18:11;;;;;;;36.67;26.67;;;14.10;99.90;;;;;;5032026;28;20154;-72
2021/07/02 02:20:37;;;;;;;39.00;27.87;;;14.20;99.90;;;;;;5032678;28;20211;-69
2021/07/02 02:23:02;;;;;;;39.43;27.27;;;14.10;99.90;;;;;;5032183;28;20155;-69
2021/07/02 02:25:28;;;;;;;38.47;27.13;;;14.10;99.90;;;;;;5032281;28;20158;-69
2021/07/02 02:27:53;;;;;;;38.77;27.77;;;14.10;99.90;;;;;;5032477;28;20182;-69
2021/07/02 02:30:19;;;;;;;40.07;26.17;;;14.10;99.90;;;;;;5031976;28;20199;-69
2021/07/02 02:32:45;;;;;;;36.90;27.27;;;14.10;99.90;;;;;;5050446;28;20619;-69
2021/07/02 02:35:11;;;;;;;43.47;29.30;;;14.10;99.90;;;;;;5051835;28;20403;-69
2021/07/02 02:37:37;;;;;;;41.43;28.13;;;14.10;99.90;;;;;;5051925;28;20157;-69
2021/07/02 02:40:05;;;;;;;43.57;28.23;;;14.10;99.90;;;;;;5051941;28;20190;-69
2021/07/02 02:42:30;;;;;;;41.43;28.00;;;14.10;99.90;;;;;;5051720;28;20397;-69
2021/07/02 02:44:56;;;;;;;39.77;28.60;;;14.10;99.90;;;;;;5036760;28;20500;-69
2021/07/02 02:47:21;;;;;;;41.63;27.67;;;14.10;99.90;;;;;;5031805;28;20163;-69
2021/07/02 02:49:47;;;;;;;38.83;27.73;;;14.10;99.90;;;;;;5031993;28;20170;-69
2021/07/02 02:52:12;;;;;;;36.90;26.20;;;14.10;99.90;;;;;;5032298;28;20262;-69
2021/07/02 02:54:38;;;;;;;40.43;29.37;;;14.00;99.90;;;;;;5031880;28;20163;-69
2021/07/02 02:57:07;;;;;;;39.63;28.97;;;14.00;99.90;;;;;;5031857;28;20218;-69
2021/07/02 02:59:34;;;;;;;42.77;29.37;;;14.00;99.90;;;;;;5031685;28;20238;-69
2021/07/02 03:02:00;;;;;;;40.80;30.97;;;13.90;99.90;;;;;;5044272;28;20466;-69
2021/07/02 03:04:27;;;;;;;43.40;28.00;;;13.90;99.90;;;;;;5051537;28;20487;-69
2021/07/02 03:06:53;;;;;;;38.70;28.70;;;13.90;99.90;;;;;;5052554;28;20397;-69
2021/07/02 03:09:18;;;;;;;41.13;29.20;;;13.90;99.90;;;;;;5055246;28;20889;-69
2021/07/02 03:11:45;;;;;;;38.23;29.10;;;13.90;99.90;;;;;;5055168;28;20161;-69
2021/07/02 03:14:11;;;;;;;49.97;32.43;;;13.90;99.90;;;;;;5055260;28;20156;-69
2021/07/02 03:16:37;;;;;;;42.33;27.60;;;13.90;99.90;;;;;;5055151;28;20401;-69
2021/07/02 03:19:04;;;;;;;42.63;29.77;;;13.90;99.90;;;;;;5054325;28;20415;-69
2021/07/02 03:21:29;;;;;;;40.10;29.90;;;14.00;99.90;;;;;;5055279;28;20739;-69
2021/07/02 03:23:55;;;;;;;39.57;27.60;;;14.00;99.90;;;;;;5054963;28;20398;-69
2021/07/02 03:26:20;;;;;;;38.33;27.73;;;14.00;99.90;;;;;;5055089;28;20163;-69
2021/07/02 03:28:46;;;;;;;39.20;28.40;;;14.00;99.90;;;;;;5055096;28;20152;-69
2021/07/02 03:31:11;;;;;;;38.00;26.43;;;14.10;99.90;;;;;;5046866;28;20188;-69
2021/07/02 03:33:37;;;;;;;44.33;30.47;;;14.00;99.90;;;;;;5034839;28;20263;-69
2021/07/02 03:36:03;;;;;;;41.37;29.10;;;14.10;99.90;;;;;;5035558;28;20234;-69
2021/07/02 03:38:28;;;;;;;38.00;26.17;;;14.10;99.90;;;;;;5034802;28;20593;-69
2021/07/02 03:40:54;;;;;;;40.70;27.27;;;14.10;99.90;;;;;;5034746;28;20201;-69
2021/07/02 03:43:19;;;;;;;40.30;26.70;;;14.10;99.90;;;;;;5035138;28;20234;-69
2021/07/02 03:45:45;;;;;;;37.57;26.80;;;14.10;99.90;;;;;;5034795;28;20185;-69
2021/07/02 03:48:11;;;;;;;42.20;27.00;;;14.20;99.90;;;;;;5034593;28;20195;-69
2021/07/02 03:50:37;;;;;;;38.17;28.37;;;14.20;99.90;;;;;;5038981;28;20191;-69
2021/07/02 03:53:03;;;;;;;39.03;27.00;;;14.20;99.90;;;;;;5038019;28;20425;-69
2021/07/02 03:55:29;;;;;;;35.47;26.07;;;14.20;99.90;;;;;;5051687;28;20442;-69
2021/07/02 03:57:54;;;;;;;36.77;24.77;;;14.20;99.90;;;;;;5045406;28;20427;-69
2021/07/02 04:00:20;;;;;;;39.13;24.27;;;14.20;99.90;;;;;;5034579;28;20199;-69
2021/07/02 04:02:46;;;;;;;39.97;25.60;;;14.20;99.90;;;;;;5040630;28;20229;-69
2021/07/02 04:05:12;;;;;;;38.47;25.13;;;14.20;99.90;;;;;;5054895;28;20155;-69
2021/07/02 04:07:38;;;;;;;33.67;24.73;;;14.20;99.90;;;;;;5048429;28;20434;-69
2021/07/02 04:10:04;;;;;;;36.40;24.80;;;14.30;99.90;;;;;;5035537;28;20194;-69
2021/07/02 04:12:29;;;;;;;32.43;23.53;;;14.30;99.90;;;;;;5049080;28;20186;-69
2021/07/02 04:14:55;;;;;;;36.53;25.13;;;14.30;99.90;;;;;;5048211;28;20427;-69
2021/07/02 04:17:21;;;;;;;36.00;24.83;;;14.30;99.90;;;;;;5054295;28;20262;-69
2021/07/02 04:19:46;;;;;;;39.60;24.53;;;14.40;99.90;;;;;;5052547;28;20262;-69
2021/07/02 04:22:12;;;;;;;37.77;25.43;;;14.40;99.90;;;;;;5034210;28;20628;-69
2021/07/02 04:24:38;;;;;;;36.23;27.30;;;14.40;99.90;;;;;;5051922;28;20210;-69
2021/07/02 04:27:03;;;;;;;35.47;24.00;;;14.40;99.90;;;;;;5050274;28;20340;-69
2021/07/02 04:29:32;;;;;;;35.77;25.77;;;14.50;99.90;;;;;;5052964;28;20709;-69
2021/07/02 04:31:57;;;;;;;37.50;25.70;;;14.50;99.90;;;;;;5035662;28;20179;-69
2021/07/02 04:34:23;;;;;;;36.37;25.70;;;14.50;99.90;;;;;;5032314;28;20399;-69
2021/07/02 04:36:48;;;;;;;36.67;24.53;;;14.60;99.90;;;;;;5035608;28;20621;-69
2021/07/02 04:39:14;;;;;;;33.63;25.13;;;14.60;99.90;;;;;;5048427;28;20187;-69
2021/07/02 04:41:40;;;;;;;35.93;27.20;;;14.60;99.90;;;;;;5046022;28;20199;-69
2021/07/02 04:44:06;;;;;;;32.47;25.67;;;14.60;99.90;;;;;;5033039;28;20183;-69
2021/07/02 04:46:32;;;;;;;34.70;24.07;;;14.60;99.90;;;;;;5033231;28;20826;-69
2021/07/02 04:48:57;;;;;;;36.63;26.57;;;14.50;99.90;;;;;;5034589;28;20166;-69
2021/07/02 04:51:23;;;;;;;43.90;25.60;;;14.60;99.90;;;;;;5033197;28;20429;-69
2021/07/02 04:53:48;;;;;;;34.10;25.90;;;14.60;99.90;;;;;;5033132;28;20204;-69
2021/07/02 04:56:14;;;;;;;33.03;25.37;;;14.60;99.90;;;;;;5033226;28;20168;-69
2021/07/02 04:58:41;;;;;;;33.87;24.30;;;14.60;99.90;;;;;;5045114;28;20199;-69
2021/07/02 05:01:07;;;;;;;31.37;23.93;;;14.70;99.90;;;;;;5045945;28;20214;-69
2021/07/02 05:03:33;;;;;;;34.97;25.37;;;14.70;99.90;;;;;;5048870;28;20441;-69
2021/07/02 05:06:01;;;;;;;33.90;23.83;;;14.80;99.90;;;;;;5033996;28;20247;-69
2021/07/02 05:08:27;;;;;;;31.20;24.43;;;14.80;99.90;;;;;;5033400;28;20158;-69
2021/07/02 05:10:52;;;;;;;29.33;22.20;;;14.90;99.90;;;;;;5033211;28;20881;-69
2021/07/02 05:13:18;;;;;;;28.47;22.20;;;14.90;99.90;;;;;;5033105;28;20164;-69
2021/07/02 05:15:44;;;;;;;35.00;22.60;;;14.90;99.90;;;;;;5033381;28;20211;-69
2021/07/02 05:18:09;;;;;;;33.77;24.20;;;14.90;99.90;;;;;;5051460;28;20187;-69
2021/07/02 05:20:35;;;;;;;29.40;22.80;;;14.90;99.90;;;;;;5052817;28;20204;-69
2021/07/02 05:23:00;;;;;;;31.47;23.03;;;14.90;99.90;;;;;;5052676;28;20168;-69
2021/07/02 05:25:26;;;;;;;41.90;25.27;;;14.90;99.90;;;;;;5044295;28;20650;-69
2021/07/02 05:27:52;;;;;;;31.90;23.00;;;14.90;99.90;;;;;;5032822;28;20697;-69
2021/07/02 05:30:18;;;;;;;33.53;22.30;;;14.90;99.90;;;;;;5033472;28;20168;-69
2021/07/02 05:32:43;;;;;;;30.13;21.80;;;14.90;99.90;;;;;;5034281;28;20169;-69
2021/07/02 05:35:09;;;;;;;35.60;21.93;;;14.90;99.90;;;;;;5033307;28;20477;-69
2021/07/02 05:37:42;;;;;;;27.57;20.73;;;14.90;99.90;;;;;;5032554;28;20615;-69
2021/07/02 05:40:09;;;;;;;29.17;21.30;;;14.90;99.90;;;;;;5033074;28;20199;-69
2021/07/02 05:42:35;;;;;;;24.97;18.57;;;14.90;99.90;;;;;;5033167;28;20430;-69
2021/07/02 05:45:00;;;;;;;25.30;18.07;;;15.00;99.90;;;;;;5046247;28;20830;-69
2021/07/02 05:47:26;;;;;;;26.80;21.00;;;15.00;99.90;;;;;;5051485;28;20452;-69
2021/07/02 05:49:52;;;;;;;27.67;18.13;;;15.10;99.90;;;;;;5043614;28;20255;-69
2021/07/02 05:52:17;;;;;;;24.57;18.97;;;15.20;99.90;;;;;;5036366;28;20335;-69
2021/07/02 05:54:47;;;;;;;22.67;17.03;;;15.20;99.90;;;;;;5038041;28;20191;-69
2021/07/02 05:57:13;;;;;;;26.80;20.27;;;15.30;99.90;;;;;;5040982;28;20639;-69
2021/07/02 05:59:38;;;;;;;25.97;17.97;;;15.30;99.90;;;;;;5039864;28;20442;-69
2021/07/02 06:02:04;;;;;;;23.33;18.33;;;15.30;99.90;;;;;;5038996;28;20694;-69
2021/07/02 06:04:29;;;;;;;23.53;17.63;;;15.30;99.90;;;;;;5044763;28;20538;-69
2021/07/02 06:06:55;;;;;;;27.07;17.30;;;15.30;99.90;;;;;;5050030;28;20160;-69
2021/07/02 06:09:20;;;;;;;19.50;15.10;;;15.30;99.90;;;;;;5050031;28;20180;-69
2021/07/02 06:11:46;;;;;;;20.70;14.20;;;15.30;99.90;;;;;;5052192;28;20266;-69
2021/07/02 06:14:12;;;;;;;21.13;14.27;;;15.30;99.90;;;;;;5034209;28;20181;-69
2021/07/02 06:16:37;;;;;;;16.00;14.00;;;15.40;99.90;;;;;;5036962;28;20180;-69
2021/07/02 06:19:03;;;;;;;17.13;13.50;;;15.40;99.90;;;;;;5032348;28;20169;-69
2021/07/02 06:21:29;;;;;;;17.90;12.57;;;15.50;99.90;;;;;;5039111;28;20294;-69
2021/07/02 06:23:55;;;;;;;15.43;12.20;;;15.60;99.90;;;;;;5047980;28;20252;-69
2021/07/02 06:26:20;;;;;;;20.17;12.17;;;15.70;99.90;;;;;;5049694;28;20976;-69
2021/07/02 06:28:46;;;;;;;15.80;12.30;;;15.80;99.90;;;;;;5046145;28;20212;-69
2021/07/02 06:31:11;;;;;;;14.40;11.63;;;15.80;99.90;;;;;;5035093;28;20713;-69
2021/07/02 06:33:37;;;;;;;20.10;12.47;;;15.80;99.90;;;;;;5030564;28;20197;-70
2021/07/02 06:36:03;;;;;;;15.27;13.33;;;15.90;99.90;;;;;;5033980;28;20176;-70
2021/07/02 06:38:29;;;;;;;18.80;11.97;;;15.90;99.90;;;;;;5035117;28;20180;-70
2021/07/02 06:40:54;;;;;;;12.70;10.97;;;16.00;99.90;;;;;;5039470;28;20500;-69
2021/07/02 06:43:20;;;;;;;14.00;11.83;;;16.10;99.90;;;;;;5039314;28;20319;-70
2021/07/02 06:45:45;;;;;;;14.30;11.03;;;16.10;99.90;;;;;;5045223;28;20188;-70
2021/07/02 06:48:11;;;;;;;14.73;10.07;;;16.30;99.90;;;;;;5045104;28;20552;-70
2021/07/02 06:50:40;;;;;;;12.00;9.20;;;16.50;99.90;;;;;;5042025;28;20645;-70
2021/07/02 06:53:06;;;;;;;13.37;10.10;;;16.70;99.90;;;;;;5041090;28;20185;-70
2021/07/02 06:55:33;;;;;;;13.07;10.10;;;16.90;99.90;;;;;;5039817;28;20518;-70
2021/07/02 06:57:59;;;;;;;11.60;9.27;;;17.00;99.90;;;;;;5045740;28;21012;-70
2021/07/02 07:00:25;;;;;;;12.83;9.57;;;17.10;99.90;;;;;;5048839;28;20513;-69
2021/07/02 07:02:51;;;;;;;10.37;9.27;;;17.40;99.90;;;;;;5055121;28;20183;-70
2021/07/02 07:05:17;;;;;;;10.40;8.30;;;17.50;99.90;;;;;;5038369;28;20447;-70
2021/07/02 07:07:44;;;;;;;9.97;8.47;;;17.70;99.90;;;;;;5034734;28;20729;-70
2021/07/02 07:10:10;;;;;;;9.77;7.73;;;17.80;99.90;;;;;;5034171;28;20403;-70
2021/07/02 07:12:36;;;;;;;9.67;6.93;;;18.00;99.90;;;;;;5046928;28;20504;-70
2021/07/02 07:15:03;;;;;;;7.57;6.77;;;18.20;99.90;;;;;;5036080;28;20406;-70
2021/07/02 07:17:30;;;;;;;9.27;6.90;;;18.40;99.90;;;;;;5046969;28;20429;-70
2021/07/02 07:19:55;;;;;;;11.63;6.97;;;18.50;99.90;;;;;;5044959;28;20433;-70
2021/07/02 07:22:21;;;;;;;7.30;5.90;;;18.50;99.90;;;;;;5039520;28;20437;-70
2021/07/02 07:24:46;;;;;;;7.83;5.17;;;18.50;99.90;;;;;;5039100;28;20192;-70
2021/07/02 07:27:12;;;;;;;6.87;5.60;;;18.50;99.90;;;;;;5038556;28;20172;-70
2021/07/02 07:29:38;;;;;;;8.47;5.37;;;18.50;99.90;;;;;;5040803;28;20164;-70
2021/07/02 07:32:04;;;;;;;5.13;4.53;;;19.00;99.90;;;;;;5044207;28;20211;-70
2021/07/02 07:37:11;;;;;;;11.00;3.87;;;21.10;99.90;;;;;;5064033;28;20527;-70
2021/07/02 07:39:37;;;;;;;7.80;4.90;;;22.30;99.90;;;;;;5061094;28;20418;-70
2021/07/02 07:42:03;;;;;;;5.03;3.70;;;22.80;99.90;;;;;;5070046;28;20456;-70
2021/07/02 07:44:29;;;;;;;5.50;3.90;;;23.10;98.70;;;;;;5069383;28;20188;-70
2021/07/02 07:46:55;;;;;;;6.83;4.30;;;23.10;98.60;;;;;;5064136;28;20825;-70
2021/07/02 07:49:22;;;;;;;5.17;3.83;;;22.90;97.80;;;;;;5059457;28;20254;-70
2021/07/02 07:51:51;;;;;;;6.57;4.50;;;22.70;98.90;;;;;;5058507;28;20465;-70
2021/07/02 07:54:16;;;;;;;5.60;4.50;;;22.40;97.70;;;;;;5068301;28;20755;-70
2021/07/02 07:56:57;;;;;;;6.00;5.47;;;22.30;99.60;;;;;;5069164;28;20456;-70
2021/07/02 07:59:27;;;;;;;7.13;4.40;;;22.50;99.90;;;;;;5069020;28;20610;-70
2021/07/02 08:01:53;;;;;;;4.87;3.70;;;23.20;98.90;;;;;;5063090;28;20477;-70
2021/07/02 08:04:19;;;;;;;6.10;4.23;;;23.40;97.70;;;;;;5054799;28;20446;-70
2021/07/02 08:06:46;;;;;;;5.80;4.67;;;23.70;95.60;;;;;;5049793;28;20188;-70
2021/07/02 08:09:12;;;;;;;4.27;3.87;;;24.20;94.40;;;;;;5052496;28;20168;-70
2021/07/02 08:11:39;;;;;;;4.73;4.23;;;24.90;93.50;;;;;;5053107;28;20521;-70
2021/07/02 08:14:05;;;;;;;6.00;4.50;;;25.50;91.50;;;;;;5065848;28;20402;-70
2021/07/02 08:16:31;;;;;;;4.10;3.63;;;25.70;90.30;;;;;;5064238;28;20460;-70
2021/07/02 08:18:57;;;;;;;3.10;2.60;;;26.00;85.70;;;;;;5050624;28;20437;-70
2021/07/02 08:21:24;;;;;;;3.43;2.90;;;26.20;87.10;;;;;;5056091;28;20422;-70
2021/07/02 08:23:49;;;;;;;3.80;3.03;;;26.90;80.90;;;;;;5054445;28;20419;-71
2021/07/02 08:26:17;;;;;;;3.10;2.80;;;28.10;74.00;;;;;;5059994;28;20437;-71
2021/07/02 08:31:28;;;;;;;4.07;2.87;;;30.90;61.10;;;;;;5066637;28;20398;-72
2021/07/02 08:33:54;;;;;;;5.50;3.37;;;32.60;54.80;;;;;;5062190;28;20930;-72
2021/07/02 08:36:20;;;;;;;3.50;3.00;;;33.60;48.10;;;;;;5051494;28;20192;-72
2021/07/02 08:38:45;;;;;;;11.47;8.43;;;33.70;48.30;;;;;;5051960;28;20196;-72
2021/07/02 08:41:13;;;;;;;19.10;13.33;;;34.20;45.80;;;;;;5058829;28;20179;-72
2021/07/02 08:43:42;;;;;;;11.00;8.33;;;35.10;43.20;;;;;;5063376;28;20317;-72
2021/07/02 08:46:12;;;;;;;10.90;7.80;;;35.90;40.80;;;;;;5068310;28;20421;-72
2021/07/02 08:48:39;;;;;;;13.97;5.47;;;36.40;38.90;;;;;;5047774;28;20419;-71
2021/07/02 08:51:07;;;;;;;5.47;3.87;;;37.50;37.30;;;;;;5045929;28;20417;-71
2021/07/02 08:53:33;;;;;;;2.90;2.70;;;37.40;36.80;;;;;;5054716;28;20430;-71
2021/07/02 08:56:01;;;;;;;1.80;1.60;;;37.60;35.00;;;;;;5053026;28;20457;-72
2021/07/02 08:58:26;;;;;;;2.07;1.90;;;38.30;34.70;;;;;;5043726;28;20510;-71
2021/07/02 09:00:52;;;;;;;3.93;2.20;;;39.00;35.00;;;;;;5034695;28;20833;-72
2021/07/02 09:03:36;;;;;;;2.10;2.00;;;39.70;31.10;;;;;;5044500;28;20194;-72
2021/07/02 09:09:07;;;;;;;2.53;2.33;;;39.70;31.00;;;;;;5070059;28;20960;-71
2021/07/02 09:11:34;;;;;;;2.73;2.53;;;39.10;30.30;;;;;;5069161;28;20431;-71
2021/07/02 09:14:01;;;;;;;3.60;2.63;;;37.70;32.60;;;;;;5068220;28;20970;-71
2021/07/02 09:19:20;;;;;;;3.40;3.00;;;36.70;34.00;;;;;;5148253;27;20514;-71
2021/07/02 09:21:46;;;;;;;2.50;2.30;;;35.50;35.70;;;;;;5151695;27;20486;-71
2021/07/02 09:24:37;;;;;;;3.00;2.80;;;35.20;35.70;;;;;;5151675;27;20490;-71
2021/07/02 09:27:23;;;;;;;3.70;2.40;;;35.10;35.70;;;;;;5137841;27;20177;-71
2021/07/02 09:30:02;;;;;;;3.13;2.83;;;34.00;37.70;;;;;;5148595;27;20424;-71
2021/07/02 09:32:30;;;;;;;4.50;3.07;;;32.70;39.90;;;;;;5143995;27;20422;-71
2021/07/02 09:34:58;;;;;;;5.07;3.57;;;31.60;41.50;;;;;;5150141;27;20507;-70
2021/07/02 09:37:28;;;;;;;4.37;3.47;;;30.30;42.60;;;;;;5147297;27;20460;-70
2021/07/02 09:39:53;;;;;;;4.83;3.83;;;29.30;45.50;;;;;;5142756;27;20931;-70
2021/07/02 09:42:28;;;;;;;3.90;3.50;;;28.00;47.30;;;;;;5151020;27;20416;-70
2021/07/02 09:45:15;;;;;;;5.03;4.53;;;27.20;49.80;;;;;;5149783;27;20168;-70
2021/07/02 09:47:43;;;;;;;4.93;3.47;;;26.60;50.70;;;;;;5149671;27;20466;-70
2021/07/02 09:53:06;;;;;;;4.73;3.70;;;26.00;52.00;;;;;;5151343;27;20928;-71
2021/07/02 09:55:40;;;;;;;5.53;3.40;;;26.50;53.00;;;;;;5150899;27;20384;-71
2021/07/02 10:00:47;;;;;;;5.90;3.80;;;26.90;54.10;;;;;;5109754;27;20509;-72
2021/07/02 10:03:14;;;;;;;3.30;3.00;;;28.10;51.10;;;;;;5109917;28;20412;-72
2021/07/02 10:06:01;;;;;;;3.97;3.57;;;28.50;51.10;;;;;;5109254;28;20483;-72
2021/07/02 10:08:30;;;;;;;3.20;2.20;;;28.90;51.50;;;;;;5095133;28;20384;-72
2021/07/02 10:10:57;;;;;;;3.00;2.30;;;29.00;49.10;;;;;;5109874;28;20380;-72
2021/07/02 10:13:26;;;;;;;2.83;2.60;;;28.90;49.80;;;;;;5109296;28;20506;-72
2021/07/02 10:15:53;;;;;;;3.27;2.70;;;28.90;47.70;;;;;;5108757;28;20389;-72
2021/07/02 10:18:21;;;;;;;3.40;3.10;;;28.60;48.30;;;;;;5108651;28;20689;-72
2021/07/02 10:20:47;;;;;;;3.33;2.73;;;28.10;48.70;;;;;;5107652;28;20439;-72
2021/07/02 10:23:26;;;;;;;3.20;2.40;;;28.10;50.30;;;;;;5096975;28;20421;-72
2021/07/02 10:25:53;;;;;;;3.77;2.43;;;28.10;49.90;;;;;;5097674;28;20416;-72
2021/07/02 10:28:21;;;;;;;3.53;2.57;;;27.90;50.00;;;;;;5092852;28;20435;-72
2021/07/02 10:30:47;;;;;;;6.27;2.70;;;27.80;51.80;;;;;;5104713;28;20420;-72
2021/07/02 10:33:14;;;;;;;3.00;2.77;;;27.70;50.30;;;;;;5102832;28;20440;-72
2021/07/02 10:35:44;;;;;;;4.03;2.90;;;27.60;51.50;;;;;;5106553;28;20615;-72
2021/07/02 10:38:11;;;;;;;7.40;3.50;;;27.50;51.30;;;;;;5098006;28;20436;-72
2021/07/02 10:40:39;;;;;;;5.50;2.97;;;27.40;51.00;;;;;;5104877;28;20856;-72
2021/07/02 10:49:06;;;;;;;3.60;3.30;;;26.40;52.20;;;;;;5067177;28;20939;-72
2021/07/02 11:04:57;;;;;;;6.00;3.10;;;25.90;56.60;;;;;;5058720;28;20524;-70
2021/07/02 11:10:00;;;;;;;4.50;3.50;;;25.80;54.70;;;;;;5062699;28;21040;-71
2021/07/02 11:12:32;;;;;;;6.73;4.23;;;25.60;55.40;;;;;;5068940;28;20398;-71
2021/07/02 11:23:13;;;;;;;4.97;3.60;;;25.40;55.90;;;;;;5109725;27;20521;-71
2021/07/02 11:25:45;;;;;;;6.10;4.70;;;24.90;58.00;;;;;;5083717;28;20408;-70
2021/07/02 11:28:15;;;;;;;4.50;4.10;;;24.90;57.60;;;;;;5097871;28;20417;-70
2021/07/02 11:30:43;;;;;;;4.50;3.70;;;24.90;58.00;;;;;;5091707;28;20474;-70
2021/07/02 11:35:48;;;;;;;6.40;4.60;;;25.00;59.30;;;;;;5107436;27;20546;-71
2021/07/02 11:46:16;;;;;;;6.67;4.17;;;25.00;57.50;;;;;;5070022;28;20511;-70
2021/07/02 11:48:52;;;;;;;6.83;4.60;;;24.80;57.10;;;;;;5064698;28;20492;-70
2021/07/02 11:54:00;;;;;;;5.67;4.90;;;24.70;59.20;;;;;;5069309;28;20528;-71
2021/07/02 11:56:29;;;;;;;4.80;3.87;;;24.30;59.60;;;;;;5069439;28;20443;-71
2021/07/02 11:58:59;;;;;;;8.20;4.93;;;24.30;61.10;;;;;;5054708;28;20439;-71
2021/07/02 12:01:38;;;;;;;6.40;5.17;;;24.30;61.60;;;;;;5047165;28;20815;-71
2021/07/02 12:04:06;;;;;;;6.43;5.07;;;24.20;59.10;;;;;;5049269;28;20806;-71
2021/07/02 12:06:33;;;;;;;4.50;4.10;;;24.30;60.60;;;;;;5048733;28;20465;-71
2021/07/02 12:09:06;;;;;;;6.00;5.03;;;24.30;59.80;;;;;;5053275;28;20518;-71
2021/07/02 12:14:10;;;;;;;7.73;5.53;;;24.50;60.90;;;;;;5068747;28;20554;-71
2021/07/02 12:16:42;;;;;;;6.20;5.13;;;24.60;63.00;;;;;;5055724;28;20441;-71
2021/07/02 12:19:15;;;;;;;7.40;5.00;;;24.40;59.70;;;;;;5051089;28;20498;-71
2021/07/02 12:21:40;;;;;;;6.80;4.57;;;24.40;60.70;;;;;;5045406;28;20420;-71
2021/07/02 12:24:07;;;;;;;4.60;4.20;;;24.30;61.50;;;;;;5051934;28;20943;-71
2021/07/02 12:26:35;;;;;;;7.33;5.67;;;24.20;61.20;;;;;;5049660;28;20184;-71
2021/07/02 12:34:26;;;;;;;6.93;6.23;;;24.20;60.90;;;;;;5123648;27;20547;-71
2021/07/02 12:39:30;;;;;;;7.60;6.07;;;24.20;62.20;;;;;;5086051;27;20540;-70
2021/07/02 12:42:00;;;;;;;7.37;6.60;;;24.20;62.20;;;;;;5088281;28;20450;-70
2021/07/02 12:44:27;;;;;;;9.53;6.13;;;24.20;63.90;;;;;;5078401;28;20410;-70
2021/07/02 12:46:53;;;;;;;7.50;5.80;;;24.10;65.80;;;;;;5089447;28;20401;-70
2021/07/02 13:00:11;;;;;;;7.50;6.70;;;23.60;65.30;;;;;;5062911;28;21002;-71
2021/07/02 13:02:50;;;;;;;10.13;7.50;;;23.30;68.80;;;;;;5043037;28;20856;-71
2021/07/02 13:07:59;;;;;;;9.80;8.30;;;23.20;70.20;;;;;;5078947;28;20926;-71
2021/07/02 13:15:58;;;;;;;10.10;9.03;;;23.20;68.80;;;;;;5064578;28;20536;-71
2021/07/02 13:18:51;;;;;;;10.23;8.03;;;23.20;73.40;;;;;;5052630;28;20445;-71
2021/07/02 13:21:35;;;;;;;11.87;7.20;;;23.20;71.80;;;;;;5059945;28;20434;-71
2021/07/02 13:24:02;;;;;;;9.40;7.10;;;23.10;74.10;;;;;;5068092;28;20796;-71
2021/07/02 13:26:31;;;;;;;11.17;8.30;;;23.00;76.30;;;;;;5065273;28;20782;-71
2021/07/02 13:29:15;;;;;;;13.87;9.40;;;22.90;74.10;;;;;;5063867;28;20441;-71
2021/07/02 13:31:51;;;;;;;8.60;7.57;;;22.80;73.50;;;;;;5049279;28;20410;-71
2021/07/02 13:34:19;;;;;;;11.97;9.60;;;22.70;76.80;;;;;;5049167;28;20457;-71
2021/07/02 13:36:48;;;;;;;8.77;7.87;;;22.70;74.40;;;;;;5049309;28;20749;-71
2021/07/02 13:44:51;;;;;;;9.30;8.30;;;22.70;73.60;;;;;;5089786;28;20503;-70
2021/07/02 13:47:17;;;;;;;9.67;7.47;;;22.70;81.30;;;;;;5080366;28;20447;-70
2021/07/02 13:49:44;;;;;;;10.90;8.50;;;22.80;83.60;;;;;;5069387;28;20378;-70
2021/07/02 13:52:10;;;;;;;9.33;8.27;;;22.80;80.80;;;;;;5069786;28;20382;-70
2021/07/02 13:54:37;;;;;;;10.50;8.77;;;22.90;85.50;;;;;;5070444;28;20391;-70
2021/07/02 13:57:04;;;;;;;11.20;9.23;;;22.90;82.20;;;;;;5089757;28;20389;-70
2021/07/02 13:59:30;;;;;;;10.33;7.40;;;22.90;84.80;;;;;;5089320;28;20417;-70
2021/07/02 14:01:57;;;;;;;11.10;8.67;;;23.00;82.70;;;;;;5082971;28;20493;-70
2021/07/02 14:04:22;;;;;;;12.10;9.50;;;23.00;82.70;;;;;;5079488;28;20564;-70
2021/07/02 14:06:48;;;;;;;11.17;9.23;;;23.10;82.60;;;;;;5089329;28;20513;-70
2021/07/02 14:09:16;;;;;;;10.57;9.57;;;23.10;83.70;;;;;;5089204;28;20166;-70
2021/07/02 14:11:43;;;;;;;15.50;9.60;;;23.10;89.70;;;;;;5089530;28;20385;-70